createdAt,value
2019-02-25T00:00:12.622Z,35.57
2019-02-25T00:01:12.597Z,34.94
2019-02-25T00:02:12.581Z,35.25
2019-02-25T00:03:12.583Z,35.97
2019-02-25T00:04:12.560Z,35.97
2019-02-25T00:05:12.546Z,36.18
2019-02-25T00:06:12.546Z,35.87
2019-02-25T00:07:12.535Z,35.48
2019-02-25T00:08:12.541Z,36.92
2019-02-25T00:09:12.507Z,36.51
2019-02-25T00:10:12.505Z,36.61
2019-02-25T00:11:12.489Z,36.10
2019-02-25T00:12:12.481Z,36.30
2019-02-25T00:13:12.460Z,36.30
2019-02-25T00:14:12.473Z,36.61
2019-02-25T00:15:12.433Z,36.61
2019-02-25T00:16:12.425Z,36.61
2019-02-25T00:17:12.416Z,36.61
2019-02-25T00:18:12.399Z,36.71
2019-02-25T00:19:12.401Z,36.41
2019-02-25T00:20:12.377Z,36.82
2019-02-25T00:21:12.374Z,37.85
2019-02-25T00:22:12.358Z,37.74
2019-02-25T00:23:12.343Z,37.35
2019-02-25T00:24:12.346Z,37.55
2019-02-25T00:25:12.323Z,37.55
2019-02-25T00:26:12.309Z,37.87
2019-02-25T00:27:12.296Z,37.35
2019-02-25T00:28:12.288Z,37.76
2019-02-25T00:29:12.302Z,37.55
2019-02-25T00:30:12.266Z,37.15
2019-02-25T00:31:12.255Z,37.66
2019-02-25T00:32:12.254Z,38.60
2019-02-25T00:33:12.231Z,38.28
2019-02-25T00:34:12.227Z,38.30
2019-02-25T00:35:12.211Z,39.12
2019-02-25T00:36:12.201Z,39.23
2019-02-25T00:37:12.185Z,39.12
2019-02-25T00:38:12.186Z,39.23
2019-02-25T00:39:12.186Z,39.12
2019-02-25T00:40:12.159Z,39.95
2019-02-25T00:41:12.138Z,39.74
2019-02-25T00:42:12.128Z,40.16
2019-02-25T00:43:12.121Z,40.47
2019-02-25T00:44:12.121Z,40.14
2019-02-25T00:45:12.111Z,39.95
2019-02-25T00:46:12.088Z,40.47
2019-02-25T00:47:12.088Z,40.16
2019-02-25T00:48:12.063Z,40.57
2019-02-25T00:49:12.062Z,40.57
2019-02-25T00:50:12.055Z,40.36
2019-02-25T00:51:12.032Z,41.60
2019-02-25T00:52:12.021Z,41.39
2019-02-25T00:53:12.004Z,41.62
2019-02-25T00:54:12.000Z,41.52
2019-02-25T00:55:11.996Z,42.22
2019-02-25T00:56:11.984Z,42.14
2019-02-25T00:57:11.980Z,42.76
2019-02-25T00:58:11.948Z,42.55
2019-02-25T00:59:11.938Z,42.44
2019-02-25T01:00:11.939Z,42.76
2019-02-25T01:01:11.932Z,43.07
2019-02-25T01:02:11.906Z,43.27
2019-02-25T01:03:11.912Z,43.81
2019-02-25T01:04:11.884Z,44.02
2019-02-25T01:05:11.893Z,44.02
2019-02-25T01:06:11.863Z,44.22
2019-02-25T01:07:11.850Z,43.91
2019-02-25T01:08:11.844Z,43.81
2019-02-25T01:09:11.837Z,43.91
2019-02-25T01:10:11.866Z,44.02
2019-02-25T01:11:11.803Z,44.14
2019-02-25T01:12:11.806Z,43.81
2019-02-25T01:13:11.795Z,44.12
2019-02-25T01:14:11.780Z,44.12
2019-02-25T01:15:11.779Z,44.56
2019-02-25T01:16:11.749Z,44.45
2019-02-25T01:17:11.741Z,44.56
2019-02-25T01:18:11.732Z,44.66
2019-02-25T01:19:11.715Z,44.35
2019-02-25T01:20:11.721Z,44.35
2019-02-25T01:21:11.748Z,44.45
2019-02-25T01:22:11.680Z,44.96
2019-02-25T01:23:11.677Z,44.57
2019-02-25T01:24:11.665Z,45.38
2019-02-25T01:25:11.655Z,44.37
2019-02-25T01:26:11.663Z,44.68
2019-02-25T01:27:11.652Z,44.68
2019-02-25T01:28:11.632Z,45.09
2019-02-25T01:29:11.609Z,44.57
2019-02-25T01:30:11.601Z,44.68
2019-02-25T01:31:11.601Z,44.78
2019-02-25T01:32:11.585Z,44.38
2019-02-25T01:33:11.557Z,44.59
2019-02-25T01:34:11.546Z,43.95
2019-02-25T01:35:11.538Z,43.85
2019-02-25T01:36:11.545Z,43.95
2019-02-25T01:37:11.524Z,44.08
2019-02-25T01:38:11.506Z,43.46
2019-02-25T01:39:11.494Z,42.92
2019-02-25T01:40:11.484Z,43.02
2019-02-25T01:41:11.482Z,43.02
2019-02-25T01:42:11.459Z,42.19
2019-02-25T01:43:11.446Z,42.61
2019-02-25T01:44:11.450Z,42.80
2019-02-25T01:45:11.427Z,42.61
2019-02-25T01:46:11.431Z,42.19
2019-02-25T01:47:11.403Z,42.30
2019-02-25T01:48:11.391Z,42.50
2019-02-25T01:49:11.382Z,42.19
2019-02-25T01:50:11.384Z,42.61
2019-02-25T01:51:11.395Z,42.19
2019-02-25T01:52:11.346Z,42.30
2019-02-25T01:53:11.339Z,41.78
2019-02-25T01:54:11.323Z,42.19
2019-02-25T01:55:11.318Z,41.88
2019-02-25T01:56:11.323Z,42.40
2019-02-25T01:57:11.290Z,41.86
2019-02-25T01:58:11.285Z,41.86
2019-02-25T01:59:11.268Z,41.86
2019-02-25T02:00:11.255Z,42.59
2019-02-25T02:01:11.271Z,42.38
2019-02-25T02:02:11.232Z,41.76
2019-02-25T02:03:11.225Z,41.76
2019-02-25T02:04:11.210Z,42.28
2019-02-25T02:05:11.202Z,42.07
2019-02-25T02:06:11.193Z,42.18
2019-02-25T02:07:11.197Z,41.86
2019-02-25T02:08:11.172Z,42.38
2019-02-25T02:09:11.163Z,41.55
2019-02-25T02:10:11.148Z,41.45
2019-02-25T02:11:11.133Z,41.35
2019-02-25T02:12:11.139Z,41.45
2019-02-25T02:13:14.178Z,41.86
2019-02-25T02:14:11.098Z,41.06
2019-02-25T02:15:11.088Z,42.38
2019-02-25T02:16:11.080Z,42.30
2019-02-25T02:17:11.082Z,41.16
2019-02-25T02:18:11.057Z,41.16
2019-02-25T02:19:11.046Z,40.23
2019-02-25T02:20:11.035Z,40.02
2019-02-25T02:21:11.026Z,40.12
2019-02-25T02:22:11.021Z,39.81
2019-02-25T02:23:11.002Z,40.75
2019-02-25T02:24:10.987Z,40.44
2019-02-25T02:25:10.987Z,39.92
2019-02-25T02:26:10.966Z,40.95
2019-02-25T02:27:10.961Z,41.08
2019-02-25T02:28:10.952Z,39.94
2019-02-25T02:29:10.929Z,40.85
2019-02-25T02:30:10.929Z,40.66
2019-02-25T02:31:10.942Z,40.64
2019-02-25T02:32:10.904Z,40.44
2019-02-25T02:33:10.903Z,41.08
2019-02-25T02:34:10.898Z,41.08
2019-02-25T02:35:10.868Z,40.64
2019-02-25T02:36:11.819Z,39.73
2019-02-25T02:37:10.876Z,40.44
2019-02-25T02:38:10.868Z,40.14
2019-02-25T02:39:10.834Z,40.45
2019-02-25T02:40:10.832Z,40.35
2019-02-25T02:41:10.799Z,40.66
2019-02-25T02:42:10.838Z,40.35
2019-02-25T02:43:10.800Z,40.04
2019-02-25T02:44:10.763Z,40.23
2019-02-25T02:45:10.760Z,39.83
2019-02-25T02:46:10.747Z,40.97
2019-02-25T02:47:10.736Z,40.33
2019-02-25T02:48:10.757Z,39.73
2019-02-25T02:49:10.713Z,40.12
2019-02-25T02:50:10.714Z,40.33
2019-02-25T02:51:10.694Z,40.87
2019-02-25T02:52:10.681Z,40.85
2019-02-25T02:53:10.677Z,40.64
2019-02-25T02:54:10.686Z,40.45
2019-02-25T02:55:10.693Z,40.64
2019-02-25T02:56:10.631Z,40.14
2019-02-25T02:57:10.621Z,41.08
2019-02-25T02:58:10.616Z,41.08
2019-02-25T02:59:10.592Z,40.02
2019-02-25T03:00:10.596Z,40.45
2019-02-25T03:01:10.574Z,40.14
2019-02-25T03:02:10.565Z,39.94
2019-02-25T03:03:10.581Z,40.04
2019-02-25T03:04:10.544Z,40.35
2019-02-25T03:05:10.532Z,40.66
2019-02-25T03:06:10.540Z,40.66
2019-02-25T03:07:10.505Z,40.56
2019-02-25T03:08:10.515Z,40.35
2019-02-25T03:09:10.494Z,40.45
2019-02-25T03:10:10.480Z,40.56
2019-02-25T03:11:10.467Z,40.14
2019-02-25T03:12:10.464Z,40.56
2019-02-25T03:13:10.438Z,40.14
2019-02-25T03:14:10.441Z,40.87
2019-02-25T03:15:10.416Z,40.35
2019-02-25T03:16:10.419Z,40.25
2019-02-25T03:17:10.401Z,40.56
2019-02-25T03:18:10.383Z,40.45
2019-02-25T03:19:10.413Z,40.66
2019-02-25T03:20:10.380Z,39.53
2019-02-25T03:21:10.358Z,40.35
2019-02-25T03:22:10.345Z,40.35
2019-02-25T03:23:10.331Z,40.14
2019-02-25T03:24:10.368Z,40.66
2019-02-25T03:25:10.376Z,40.54
2019-02-25T03:26:10.291Z,41.67
2019-02-25T03:27:10.292Z,41.39
2019-02-25T03:28:10.270Z,41.91
2019-02-25T03:29:10.286Z,41.91
2019-02-25T03:30:10.248Z,42.42
2019-02-25T03:31:10.241Z,42.11
2019-02-25T03:32:10.233Z,41.80
2019-02-25T03:33:10.225Z,42.11
2019-02-25T03:34:10.222Z,42.63
2019-02-25T03:35:10.202Z,42.21
2019-02-25T03:36:10.180Z,42.73
2019-02-25T03:37:10.175Z,42.52
2019-02-25T03:38:10.159Z,43.46
2019-02-25T03:39:10.157Z,42.32
2019-02-25T03:40:10.152Z,43.25
2019-02-25T03:41:10.125Z,43.15
2019-02-25T03:42:10.115Z,43.35
2019-02-25T03:43:10.127Z,44.08
2019-02-25T03:44:10.098Z,43.98
2019-02-25T03:45:10.093Z,43.77
2019-02-25T03:46:10.074Z,43.66
2019-02-25T03:47:10.062Z,43.98
2019-02-25T03:48:10.051Z,43.56
2019-02-25T03:49:10.035Z,43.77
2019-02-25T03:50:10.051Z,44.59
2019-02-25T03:51:10.027Z,44.18
2019-02-25T03:52:10.001Z,45.01
2019-02-25T03:53:10.047Z,44.80
2019-02-25T03:54:09.979Z,44.93
2019-02-25T03:55:10.002Z,45.63
2019-02-25T03:56:09.972Z,44.93
2019-02-25T03:57:09.945Z,45.44
2019-02-25T03:58:09.946Z,46.17
2019-02-25T03:59:09.948Z,45.96
2019-02-25T04:00:09.915Z,46.37
2019-02-25T04:01:09.911Z,46.17
2019-02-25T04:02:09.919Z,46.58
2019-02-25T04:03:09.883Z,46.58
2019-02-25T04:04:09.882Z,46.79
2019-02-25T04:05:09.857Z,46.60
2019-02-25T04:06:09.858Z,46.58
2019-02-25T04:07:09.838Z,46.19
2019-02-25T04:08:09.849Z,46.70
2019-02-25T04:09:09.811Z,47.02
2019-02-25T04:10:09.812Z,46.70
2019-02-25T04:11:09.809Z,46.91
2019-02-25T04:12:09.785Z,47.12
2019-02-25T04:13:09.832Z,47.33
2019-02-25T04:14:09.793Z,47.33
2019-02-25T04:15:09.755Z,47.12
2019-02-25T04:16:09.755Z,47.85
2019-02-25T04:17:09.746Z,48.16
2019-02-25T04:18:09.712Z,48.47
2019-02-25T04:19:09.705Z,47.85
2019-02-25T04:20:09.692Z,48.47
2019-02-25T04:21:09.706Z,48.08
2019-02-25T04:22:09.667Z,48.16
2019-02-25T04:23:09.668Z,48.16
2019-02-25T04:24:09.642Z,48.18
2019-02-25T04:25:09.644Z,48.36
2019-02-25T04:26:09.634Z,48.05
2019-02-25T04:27:09.610Z,47.77
2019-02-25T04:28:09.608Z,48.47
2019-02-25T04:29:09.588Z,47.95
2019-02-25T04:30:09.577Z,48.05
2019-02-25T04:31:09.588Z,48.49
2019-02-25T04:32:09.562Z,48.26
2019-02-25T04:33:09.547Z,48.28
2019-02-25T04:34:09.530Z,48.08
2019-02-25T04:35:09.520Z,48.28
2019-02-25T04:36:09.521Z,47.97
2019-02-25T04:37:09.518Z,47.97
2019-02-25T04:38:09.494Z,48.49
2019-02-25T04:39:09.478Z,48.18
2019-02-25T04:40:09.498Z,47.87
2019-02-25T04:41:09.454Z,48.39
2019-02-25T04:42:09.457Z,48.28
2019-02-25T04:43:09.510Z,48.28
2019-02-25T04:44:09.422Z,48.80
2019-02-25T04:45:09.413Z,48.49
2019-02-25T04:46:09.400Z,48.49
2019-02-25T04:47:09.403Z,49.09
2019-02-25T04:48:09.374Z,48.80
2019-02-25T04:49:09.424Z,47.97
2019-02-25T04:50:09.353Z,48.49
2019-02-25T04:51:09.349Z,48.80
2019-02-25T04:52:09.341Z,48.80
2019-02-25T04:53:09.345Z,48.47
2019-02-25T04:54:09.361Z,49.01
2019-02-25T04:55:09.315Z,48.90
2019-02-25T04:56:09.285Z,49.30
2019-02-25T04:57:09.283Z,49.19
2019-02-25T04:58:09.265Z,49.01
2019-02-25T04:59:09.253Z,49.42
2019-02-25T05:00:09.239Z,49.52
2019-02-25T05:01:09.237Z,49.32
2019-02-25T05:02:09.246Z,50.04
2019-02-25T05:03:09.220Z,49.42
2019-02-25T05:04:09.196Z,49.94
2019-02-25T05:05:09.187Z,50.07
2019-02-25T05:06:09.178Z,50.46
2019-02-25T05:07:09.216Z,50.35
2019-02-25T05:08:09.168Z,50.35
2019-02-25T05:09:09.173Z,50.98
2019-02-25T05:10:09.187Z,51.08
2019-02-25T05:11:09.119Z,50.98
2019-02-25T05:12:09.114Z,51.08
2019-02-25T05:13:09.117Z,51.18
2019-02-25T05:14:09.086Z,50.77
2019-02-25T05:15:09.107Z,50.98
2019-02-25T05:16:09.061Z,50.87
2019-02-25T05:17:09.046Z,50.56
2019-02-25T05:18:09.058Z,51.29
2019-02-25T05:19:09.026Z,50.98
2019-02-25T05:20:09.013Z,51.39
2019-02-25T05:21:09.005Z,50.67
2019-02-25T05:22:09.004Z,50.67
2019-02-25T05:23:09.022Z,51.70
2019-02-25T05:24:09.005Z,51.39
2019-02-25T05:25:08.959Z,50.90
2019-02-25T05:26:08.952Z,51.60
2019-02-25T05:27:08.945Z,51.08
2019-02-25T05:28:08.934Z,51.91
2019-02-25T05:29:08.921Z,51.73
2019-02-25T05:30:09.009Z,50.87
2019-02-25T05:31:08.894Z,51.73
2019-02-25T05:32:08.887Z,51.31
2019-02-25T05:33:08.877Z,51.91
2019-02-25T05:34:08.857Z,51.50
2019-02-25T05:35:08.856Z,51.91
2019-02-25T05:36:08.848Z,52.33
2019-02-25T05:37:08.877Z,51.39
2019-02-25T05:38:08.824Z,52.14
2019-02-25T05:39:08.805Z,51.83
2019-02-25T05:40:08.798Z,51.91
2019-02-25T05:41:08.786Z,52.35
2019-02-25T05:42:08.773Z,51.83
2019-02-25T05:43:08.765Z,52.25
2019-02-25T05:44:08.761Z,52.97
2019-02-25T05:45:08.734Z,52.45
2019-02-25T05:46:08.721Z,52.87
2019-02-25T05:47:08.712Z,52.56
2019-02-25T05:48:08.725Z,51.83
2019-02-25T05:49:08.695Z,52.04
2019-02-25T05:50:08.679Z,52.14
2019-02-25T05:51:08.666Z,52.25
2019-02-25T05:52:08.660Z,52.97
2019-02-25T05:53:08.679Z,52.87
2019-02-25T05:54:08.638Z,52.69
2019-02-25T05:55:08.630Z,53.72
2019-02-25T05:56:08.612Z,53.51
2019-02-25T05:57:08.603Z,53.10
2019-02-25T05:58:08.596Z,53.92
2019-02-25T05:59:08.611Z,54.44
2019-02-25T06:00:08.578Z,53.51
2019-02-25T06:01:08.572Z,54.44
2019-02-25T06:02:08.543Z,54.79
2019-02-25T06:03:08.557Z,53.72
2019-02-25T06:04:08.520Z,54.34
2019-02-25T06:05:08.514Z,54.55
2019-02-25T06:06:08.509Z,54.99
2019-02-25T06:07:10.420Z,54.27
2019-02-25T06:08:08.510Z,54.79
2019-02-25T06:09:08.472Z,54.47
2019-02-25T06:10:08.458Z,54.68
2019-02-25T06:11:08.444Z,54.99
2019-02-25T06:12:08.442Z,55.10
2019-02-25T06:13:08.418Z,54.99
2019-02-25T06:14:09.024Z,54.99
2019-02-25T06:15:08.399Z,54.58
2019-02-25T06:16:08.385Z,54.58
2019-02-25T06:17:08.375Z,54.55
2019-02-25T06:18:08.373Z,54.89
2019-02-25T06:19:08.377Z,54.96
2019-02-25T06:20:08.346Z,54.86
2019-02-25T06:21:08.331Z,54.86
2019-02-25T06:22:08.317Z,54.44
2019-02-25T06:23:08.321Z,54.99
2019-02-25T06:24:08.307Z,55.82
2019-02-25T06:25:08.296Z,55.30
2019-02-25T06:26:08.281Z,55.17
2019-02-25T06:27:08.264Z,55.07
2019-02-25T06:28:08.253Z,54.86
2019-02-25T06:29:08.273Z,54.89
2019-02-25T06:30:08.237Z,54.96
2019-02-25T06:31:08.219Z,55.30
2019-02-25T06:32:08.206Z,55.20
2019-02-25T06:33:08.201Z,55.38
2019-02-25T06:34:08.184Z,55.30
2019-02-25T06:35:08.201Z,55.48
2019-02-25T06:36:08.204Z,55.38
2019-02-25T06:37:08.165Z,55.79
2019-02-25T06:38:08.144Z,55.27
2019-02-25T06:39:08.131Z,55.38
2019-02-25T06:40:08.133Z,55.27
2019-02-25T06:41:08.113Z,55.90
2019-02-25T06:42:08.100Z,55.79
2019-02-25T06:43:08.082Z,55.48
2019-02-25T06:44:08.078Z,55.17
2019-02-25T06:45:08.118Z,54.52
2019-02-25T06:46:08.049Z,54.52
2019-02-25T06:47:08.050Z,54.96
2019-02-25T06:48:08.042Z,54.52
2019-02-25T06:49:08.012Z,54.34
2019-02-25T06:50:08.015Z,54.32
2019-02-25T06:51:07.998Z,54.63
2019-02-25T06:52:07.982Z,54.00
2019-02-25T06:53:07.975Z,54.52
2019-02-25T06:54:07.975Z,53.59
2019-02-25T06:55:07.955Z,53.38
2019-02-25T06:56:07.941Z,52.97
2019-02-25T06:57:07.931Z,53.69
2019-02-25T06:58:07.924Z,52.35
2019-02-25T06:59:07.909Z,52.45
2019-02-25T07:00:07.914Z,52.53
2019-02-25T07:01:07.890Z,52.64
2019-02-25T07:02:07.873Z,52.74
2019-02-25T07:03:07.861Z,52.43
2019-02-25T07:04:07.847Z,53.67
2019-02-25T07:05:07.848Z,53.46
2019-02-25T07:06:07.833Z,52.95
2019-02-25T07:07:07.815Z,53.98
2019-02-25T07:08:07.800Z,53.56
2019-02-25T07:09:07.791Z,53.77
2019-02-25T07:10:07.795Z,53.88
2019-02-25T07:11:07.778Z,54.19
2019-02-25T07:12:07.786Z,54.50
2019-02-25T07:13:07.749Z,53.77
2019-02-25T07:14:07.734Z,54.08
2019-02-25T07:15:07.731Z,54.29
2019-02-25T07:16:07.743Z,54.32
2019-02-25T07:17:07.714Z,52.87
2019-02-25T07:18:07.689Z,53.77
2019-02-25T07:19:07.675Z,53.38
2019-02-25T07:20:07.666Z,53.05
2019-02-25T07:21:07.672Z,52.95
2019-02-25T07:22:07.653Z,53.08
2019-02-25T07:23:07.642Z,53.05
2019-02-25T07:24:07.624Z,53.56
2019-02-25T07:25:07.613Z,53.08
2019-02-25T07:26:07.608Z,53.05
2019-02-25T07:27:07.600Z,53.77
2019-02-25T07:28:07.589Z,52.25
2019-02-25T07:29:07.583Z,52.43
2019-02-25T07:30:07.554Z,52.66
2019-02-25T07:31:07.551Z,52.97
2019-02-25T07:32:07.551Z,52.12
2019-02-25T07:33:07.532Z,52.33
2019-02-25T07:34:07.509Z,51.18
2019-02-25T07:35:07.500Z,51.60
2019-02-25T07:36:07.501Z,50.64
2019-02-25T07:37:07.482Z,50.95
2019-02-25T07:38:07.473Z,50.54
2019-02-25T07:39:07.454Z,50.54
2019-02-25T07:40:07.438Z,50.23
2019-02-25T07:41:07.431Z,50.33
2019-02-25T07:42:07.440Z,50.31
2019-02-25T07:43:07.407Z,50.33
2019-02-25T07:44:07.403Z,49.90
2019-02-25T07:45:07.386Z,49.38
2019-02-25T07:46:07.378Z,50.21
2019-02-25T07:47:07.375Z,49.17
2019-02-25T07:48:07.355Z,49.46
2019-02-25T07:49:07.345Z,49.77
2019-02-25T07:50:07.340Z,50.08
2019-02-25T07:51:07.326Z,49.04
2019-02-25T07:52:07.338Z,49.66
2019-02-25T07:53:07.294Z,48.83
2019-02-25T07:54:07.284Z,49.04
2019-02-25T07:55:07.276Z,49.04
2019-02-25T07:56:07.265Z,47.99
2019-02-25T07:57:07.287Z,48.09
2019-02-25T07:58:07.247Z,49.13
2019-02-25T07:59:07.231Z,47.99
2019-02-25T08:00:07.222Z,47.78
2019-02-25T08:01:07.203Z,48.09
2019-02-25T08:02:07.211Z,47.78
2019-02-25T08:03:07.185Z,48.09
2019-02-25T08:04:07.197Z,48.50
2019-02-25T08:05:07.179Z,48.30
2019-02-25T08:06:07.153Z,47.97
2019-02-25T08:07:07.145Z,46.83
2019-02-25T08:08:07.150Z,47.34
2019-02-25T08:09:07.130Z,47.45
2019-02-25T08:10:07.103Z,47.03
2019-02-25T08:11:07.094Z,46.72
2019-02-25T08:12:07.117Z,46.72
2019-02-25T08:13:07.069Z,46.93
2019-02-25T08:14:07.057Z,46.51
2019-02-25T08:15:08.967Z,46.83
2019-02-25T08:16:07.037Z,46.50
2019-02-25T08:17:07.027Z,46.08
2019-02-25T08:18:07.025Z,46.50
2019-02-25T08:19:07.013Z,45.67
2019-02-25T08:20:06.991Z,45.56
2019-02-25T08:21:06.996Z,46.21
2019-02-25T08:22:06.990Z,45.05
2019-02-25T08:23:06.966Z,45.15
2019-02-25T08:24:06.950Z,45.15
2019-02-25T08:25:06.955Z,45.23
2019-02-25T08:26:06.928Z,45.13
2019-02-25T08:27:06.920Z,44.82
2019-02-25T08:28:06.912Z,45.34
2019-02-25T08:29:06.891Z,45.03
2019-02-25T08:30:06.883Z,45.32
2019-02-25T08:31:06.899Z,44.62
2019-02-25T08:32:06.866Z,45.11
2019-02-25T08:33:06.899Z,43.87
2019-02-25T08:34:06.840Z,44.39
2019-02-25T08:35:06.822Z,45.01
2019-02-25T08:36:06.828Z,44.57
2019-02-25T08:37:06.806Z,44.37
2019-02-25T08:38:06.817Z,44.06
2019-02-25T08:39:06.827Z,43.01
2019-02-25T08:40:06.766Z,42.90
2019-02-25T08:41:06.758Z,43.19
2019-02-25T08:42:06.744Z,43.83
2019-02-25T08:43:06.752Z,43.07
2019-02-25T08:44:06.724Z,42.04
2019-02-25T08:45:06.719Z,41.69
2019-02-25T08:46:06.703Z,40.19
2019-02-25T08:47:06.691Z,39.25
2019-02-25T08:48:06.681Z,40.45
2019-02-25T08:49:06.689Z,38.03
2019-02-25T08:50:06.658Z,37.30
2019-02-25T08:51:06.653Z,36.14
2019-02-25T08:52:06.634Z,35.08
2019-02-25T08:53:06.625Z,34.04
2019-02-25T08:54:06.630Z,34.35
2019-02-25T08:55:06.601Z,34.55
2019-02-25T08:56:06.605Z,33.92
2019-02-25T08:57:06.577Z,33.91
2019-02-25T08:58:06.581Z,33.07
2019-02-25T08:59:06.564Z,32.56
2019-02-25T09:00:06.541Z,33.72
2019-02-25T09:01:06.535Z,34.55
2019-02-25T09:02:06.534Z,35.08
2019-02-25T09:03:06.509Z,34.69
2019-02-25T09:04:06.514Z,34.67
2019-02-25T09:05:06.485Z,34.33
2019-02-25T09:06:06.476Z,33.91
2019-02-25T09:07:06.465Z,33.47
2019-02-25T09:08:06.470Z,32.52
2019-02-25T09:09:06.453Z,31.91
2019-02-25T09:10:06.428Z,31.57
2019-02-25T09:11:13.874Z,30.83
2019-02-25T09:12:07.410Z,31.01
2019-02-25T09:13:06.397Z,30.77
2019-02-25T09:14:06.411Z,29.44
2019-02-25T09:15:06.373Z,30.04
2019-02-25T09:16:06.363Z,29.11
2019-02-25T09:17:06.350Z,29.11
2019-02-25T09:18:06.355Z,29.55
2019-02-25T09:19:06.337Z,30.91
2019-02-25T09:20:06.331Z,32.71
2019-02-25T09:21:08.075Z,33.76
2019-02-25T09:22:06.294Z,34.48
2019-02-25T09:23:06.282Z,35.83
2019-02-25T09:24:06.274Z,36.05
2019-02-25T09:25:06.280Z,37.68
2019-02-25T09:26:06.251Z,36.97
2019-02-25T09:27:06.238Z,35.85
2019-02-25T09:28:06.227Z,34.89
2019-02-25T09:29:06.215Z,33.95
2019-02-25T09:30:06.215Z,34.25
2019-02-25T09:31:06.205Z,33.95
2019-02-25T09:32:06.205Z,33.86
2019-02-25T09:33:06.184Z,34.66
2019-02-25T09:34:06.163Z,33.10
2019-02-25T09:35:06.161Z,32.88
2019-02-25T09:36:06.147Z,33.66
2019-02-25T09:37:06.126Z,30.09
2019-02-25T09:38:06.116Z,31.20
2019-02-25T09:39:06.107Z,30.26
2019-02-25T09:40:06.115Z,29.85
2019-02-25T09:41:06.078Z,30.43
2019-02-25T09:42:06.072Z,28.79
2019-02-25T09:43:06.066Z,28.88
2019-02-25T09:44:06.047Z,29.28
2019-02-25T09:45:06.034Z,30.00
2019-02-25T09:46:06.033Z,29.39
2019-02-25T09:47:06.027Z,29.19
2019-02-25T09:48:06.011Z,29.18
2019-02-25T09:49:05.994Z,28.67
2019-02-25T09:50:05.978Z,29.38
2019-02-25T09:51:06.007Z,28.57
2019-02-25T09:52:07.000Z,28.67
2019-02-25T09:53:07.363Z,28.27
2019-02-25T09:54:05.936Z,28.77
2019-02-25T09:55:05.922Z,27.85
2019-02-25T09:56:05.969Z,28.24
2019-02-25T09:57:05.903Z,28.44
2019-02-25T09:58:05.885Z,28.01
2019-02-25T09:59:05.910Z,27.29
2019-02-25T10:00:05.865Z,27.39
2019-02-25T10:01:05.862Z,27.48
2019-02-25T10:02:05.843Z,28.09
2019-02-25T10:03:05.829Z,28.10
2019-02-25T10:04:05.818Z,28.12
2019-02-25T10:05:05.807Z,28.12
2019-02-25T10:06:05.821Z,29.17
2019-02-25T10:07:05.781Z,29.89
2019-02-25T10:08:05.772Z,29.69
2019-02-25T10:09:05.758Z,29.79
2019-02-25T10:10:05.749Z,29.88
2019-02-25T10:11:05.759Z,28.76
2019-02-25T10:12:05.727Z,29.15
2019-02-25T10:13:05.716Z,28.53
2019-02-25T10:14:05.702Z,28.72
2019-02-25T10:15:05.697Z,28.52
2019-02-25T10:16:05.705Z,27.46
2019-02-25T10:17:05.683Z,29.32
2019-02-25T10:18:05.668Z,29.94
2019-02-25T10:19:05.658Z,29.63
2019-02-25T10:20:05.635Z,29.02
2019-02-25T10:21:05.632Z,28.80
2019-02-25T10:22:05.620Z,29.41
2019-02-25T10:23:05.602Z,29.92
2019-02-25T10:24:05.591Z,29.39
2019-02-25T10:25:05.580Z,29.18
2019-02-25T10:26:05.567Z,29.08
2019-02-25T10:27:05.574Z,29.89
2019-02-25T10:28:05.551Z,30.19
2019-02-25T10:29:05.533Z,29.17
2019-02-25T10:30:05.522Z,29.27
2019-02-25T10:31:05.510Z,28.36
2019-02-25T10:32:06.527Z,28.27
2019-02-25T10:33:05.488Z,30.22
2019-02-25T10:34:05.477Z,28.92
2019-02-25T10:35:05.465Z,30.55
2019-02-25T10:36:05.456Z,30.87
2019-02-25T10:37:05.466Z,30.68
2019-02-25T10:38:05.436Z,30.47
2019-02-25T10:39:05.426Z,30.15
2019-02-25T10:40:05.426Z,29.61
2019-02-25T10:41:05.426Z,29.69
2019-02-25T10:42:05.399Z,28.85
2019-02-25T10:43:05.375Z,29.14
2019-02-25T10:44:06.501Z,28.20
2019-02-25T10:45:07.234Z,27.48
2019-02-25T10:46:06.987Z,27.26
2019-02-25T10:47:05.339Z,26.22
2019-02-25T10:48:05.319Z,25.40
2019-02-25T10:49:11.553Z,24.82
2019-02-25T10:50:07.458Z,26.32
2019-02-25T10:51:07.000Z,26.13
2019-02-25T10:52:07.060Z,26.12
2019-02-25T10:53:05.266Z,25.31
2019-02-25T10:54:05.252Z,25.41
2019-02-25T10:55:05.250Z,25.60
2019-02-25T10:56:05.229Z,25.30
2019-02-25T10:57:05.235Z,25.31
2019-02-25T10:58:05.214Z,26.51
2019-02-25T10:59:06.217Z,26.10
2019-02-25T11:00:07.272Z,25.38
2019-02-25T11:01:05.172Z,25.18
2019-02-25T11:02:05.192Z,25.58
2019-02-25T11:03:05.162Z,25.27
2019-02-25T11:04:05.140Z,25.38
2019-02-25T11:05:05.132Z,25.37
2019-02-25T11:06:05.146Z,25.67
2019-02-25T11:07:06.897Z,25.48
2019-02-25T11:08:05.834Z,25.81
2019-02-25T11:09:06.880Z,26.41
2019-02-25T11:10:05.092Z,25.90
2019-02-25T11:11:05.059Z,26.50
2019-02-25T11:12:05.048Z,25.20
2019-02-25T11:13:05.048Z,25.10
2019-02-25T11:14:06.712Z,25.50
2019-02-25T11:15:05.734Z,24.90
2019-02-25T11:16:05.030Z,24.79
2019-02-25T11:17:04.993Z,25.20
2019-02-25T11:18:04.995Z,24.07
2019-02-25T11:19:04.970Z,24.48
2019-02-25T11:20:05.691Z,25.01
2019-02-25T11:21:06.068Z,25.93
2019-02-25T11:22:05.565Z,26.72
2019-02-25T11:23:04.937Z,25.99
2019-02-25T11:24:04.915Z,24.08
2019-02-25T11:25:04.905Z,25.89
2019-02-25T11:26:04.892Z,26.28
2019-02-25T11:27:05.571Z,27.49
2019-02-25T11:28:06.923Z,28.21
2019-02-25T11:29:05.556Z,26.37
2019-02-25T11:30:04.851Z,26.27
2019-02-25T11:31:04.852Z,24.26
2019-02-25T11:32:04.851Z,24.26
2019-02-25T11:33:04.823Z,24.47
2019-02-25T11:34:05.697Z,25.38
2019-02-25T11:35:06.298Z,25.48
2019-02-25T11:36:04.777Z,24.99
2019-02-25T11:37:04.788Z,24.20
2019-02-25T11:38:04.775Z,24.24
2019-02-25T11:39:06.769Z,25.66
2019-02-25T11:40:04.760Z,24.13
2019-02-25T11:41:07.137Z,25.34
2019-02-25T11:42:06.112Z,25.24
2019-02-25T11:43:04.729Z,25.35
2019-02-25T11:44:04.691Z,24.93
2019-02-25T11:45:04.706Z,25.45
2019-02-25T11:46:04.713Z,25.35
2019-02-25T11:47:04.657Z,25.65
2019-02-25T11:48:04.674Z,24.33
2019-02-25T11:49:04.656Z,24.12
2019-02-25T11:50:04.620Z,23.82
2019-02-25T11:51:04.609Z,24.11
2019-02-25T11:52:04.634Z,23.81
2019-02-25T11:53:04.584Z,24.22
2019-02-25T11:54:04.587Z,24.32
2019-02-25T11:55:04.566Z,24.63
2019-02-25T11:56:04.562Z,23.30
2019-02-25T11:57:04.538Z,24.11
2019-02-25T11:58:04.525Z,24.11
2019-02-25T11:59:04.529Z,24.22
2019-02-25T12:00:04.504Z,24.43
2019-02-25T12:01:04.504Z,24.63
2019-02-25T12:02:04.489Z,24.52
2019-02-25T12:03:04.470Z,24.32
2019-02-25T12:04:04.470Z,24.32
2019-02-25T12:05:04.451Z,24.82
2019-02-25T12:06:04.437Z,24.60
2019-02-25T12:07:04.427Z,24.29
2019-02-25T12:08:04.413Z,24.68
2019-02-25T12:09:04.412Z,23.57
2019-02-25T12:10:04.394Z,24.16
2019-02-25T12:11:04.382Z,23.97
2019-02-25T12:12:04.368Z,24.09
2019-02-25T12:13:04.355Z,24.51
2019-02-25T12:14:04.623Z,25.31
2019-02-25T12:15:04.339Z,24.00
2019-02-25T12:16:04.324Z,24.00
2019-02-25T12:17:04.311Z,24.63
2019-02-25T12:18:04.305Z,25.36
2019-02-25T12:19:04.294Z,26.35
2019-02-25T12:20:04.289Z,25.26
2019-02-25T12:21:04.265Z,26.18
2019-02-25T12:22:04.258Z,26.50
2019-02-25T12:23:04.244Z,26.40
2019-02-25T12:24:04.233Z,27.40
2019-02-25T12:25:04.237Z,26.38
2019-02-25T12:26:04.207Z,26.67
2019-02-25T12:27:04.200Z,25.35
2019-02-25T12:28:04.184Z,25.45
2019-02-25T12:29:10.578Z,25.95
2019-02-25T12:30:05.172Z,26.15
2019-02-25T12:31:04.165Z,26.34
2019-02-25T12:32:04.143Z,25.52
2019-02-25T12:33:04.129Z,24.82
2019-02-25T12:34:04.117Z,25.01
2019-02-25T12:35:04.118Z,24.80
2019-02-25T12:36:04.097Z,25.73
2019-02-25T12:37:04.083Z,26.73
2019-02-25T12:38:04.073Z,25.51
2019-02-25T12:39:04.080Z,25.09
2019-02-25T12:40:04.048Z,24.26
2019-02-25T12:41:04.053Z,23.94
2019-02-25T12:42:04.036Z,24.44
2019-02-25T12:43:04.013Z,23.85
2019-02-25T12:44:04.005Z,23.94
2019-02-25T12:45:03.995Z,23.53
2019-02-25T12:46:04.423Z,23.32
2019-02-25T12:47:03.970Z,23.30
2019-02-25T12:48:03.977Z,23.50
2019-02-25T12:49:03.946Z,24.12
2019-02-25T12:50:03.935Z,24.32
2019-02-25T12:51:03.938Z,24.61
2019-02-25T12:52:03.918Z,23.99